Latest Weather Observations for Nullo Mountain

IDN60801

Issued at 12:35 pm EST Sunday 20 April 2014 (issued every 30 minutes, with the page automatically refreshed every 10 minutes)

About weather observations | Map of weather stations | Latest weather observations for NSW | Other Formats
Station Details ID: 062100 Name: NULLO MOUNTAIN AWS Lat: -32.72 Lon: 150.23 Height: 1130.0 m
Data from the previous 72 hours. | See also: Recent months at Nullo Mountain
Date/Time
EST
Temp
°C
App
Temp
°C
Dew
Point
Rel
Hum
%
Delta-T
°C
Wind Press
QNH
hPa
Press
MSL
hPa
Rain
since 9 am
mm
Dir
 
Spd
km/h
Gust
km/h
Spd
kts
Gust
kts
20/12:30pm 15.6 13.9 7.4 58 4.3 WNW 6 11 3 6 - - 0.0
20/12:00pm 15.1 13.2 7.6 61 4.0 N 7 11 4 6 - - 0.0
20/11:30am 14.8 13.2 7.8 63 3.7 WNW 6 11 3 6 - - 0.0
20/11:00am 14.3 12.5 8.0 66 3.3 NNW 7 11 4 6 - - 0.0
20/10:30am 14.0 12.6 8.8 71 2.8 NNW 6 11 3 6 - - 0.0
20/10:00am 13.0 11.3 8.3 73 2.5 NNW 7 15 4 8 - - 0.0
20/09:30am 11.8 9.8 7.3 74 2.3 NNW 7 13 4 7 - - 0.0
20/09:00am 11.4 9.4 8.8 84 1.4 N 9 13 5 7 - - 0.2
20/08:30am 10.1 8.8 9.2 94 0.5 NNE 6 11 3 6 - - 0.2
20/08:00am 9.1 7.1 8.8 98 0.2 NNE 9 17 5 9 - - 0.2
20/07:30am 9.0 7.4 8.9 99 0.1 NNE 7 15 4 8 - - 0.2
20/07:00am 8.7 7.2 8.6 99 0.1 NE 6 11 3 6 - - 0.2
20/06:30am 8.1 6.5 8.0 99 0.1 NE 6 15 3 8 - - 0.2
20/06:00am 7.9 6.6 7.6 98 0.2 ENE 4 11 2 6 - - 0.2
20/05:30am 7.9 6.6 7.6 98 0.2 ENE 4 11 2 6 - - 0.0
20/05:00am 8.1 6.5 8.0 99 0.1 ENE 6 13 3 7 - - 0.0
20/04:30am 8.1 6.5 8.0 99 0.1 ENE 6 15 3 8 - - 0.0
20/04:00am 7.8 5.9 7.7 99 0.1 ENE 7 17 4 9 - - 0.0
20/03:30am 7.9 6.1 7.8 99 0.1 ENE 7 17 4 9 - - 0.0
20/03:00am 7.7 5.1 7.6 99 0.1 E 11 22 6 12 - - 0.0
20/02:30am 7.5 5.1 7.2 98 0.1 E 9 20 5 11 - - 0.0
20/02:00am 7.5 3.6 7.2 98 0.1 E 17 22 9 12 - - 0.0
20/01:30am 7.3 4.5 6.9 97 0.2 E 11 20 6 11 - - 0.0
20/01:00am 7.4 3.9 7.0 97 0.2 E 15 19 8 10 - - 0.0
20/12:30am 7.2 3.6 6.9 98 0.1 E 15 19 8 10 - - 0.0
20/12:00am 7.2 3.6 6.9 98 0.1 E 15 19 8 10 - - 0.0
 
Date/Time
EST
Temp
°C
App
Temp
°C
Dew
Point
Rel
Hum
%
Delta-T
°C
Wind Press
QNH
hPa
Press
MSL
hPa
Rain
since 9 am
mm
Dir
 
Spd
km/h
Gust
km/h
Spd
kts
Gust
kts
19/11:30pm 7.0 3.4 6.7 98 0.1 E 15 19 8 10 - - 0.0
19/11:00pm 7.5 5.1 7.1 97 0.2 E 9 13 5 7 - - 0.0
19/10:30pm 8.1 5.5 7.8 98 0.2 E 11 15 6 8 - - 0.0
19/10:00pm 8.1 5.9 7.8 98 0.2 ESE 9 15 5 8 - - 0.0
19/09:30pm 8.2 5.2 7.8 97 0.2 ESE 13 17 7 9 - - 0.0
19/09:00pm 7.7 5.2 4.8 82 1.4 ESE 7 11 4 6 - - 0.0
19/08:30pm 6.7 4.0 2.4 74 1.9 ESE 6 6 3 3 - - 0.0
19/08:00pm 8.3 5.5 1.9 64 2.8 SW 6 9 3 5 - - 0.0
19/07:30pm 8.7 6.2 1.8 62 3.1 WSW 4 7 2 4 - - 0.0
19/07:00pm 8.3 6.2 1.5 62 3.0 W 2 4 1 2 - - 0.0
19/06:30pm 8.3 6.6 1.9 64 2.8 CALM 0 0 0 0 - - 0.0
19/06:00pm 9.6 7.6 2.2 60 3.3 WSW 2 6 1 3 - - 0.0
19/05:30pm 10.7 8.4 2.8 58 3.7 W 4 7 2 4 - - 0.0
19/05:00pm 11.8 9.0 3.1 55 4.1 W 7 15 4 8 - - 0.0
19/04:30pm 12.6 9.5 3.8 55 4.2 WSW 9 17 5 9 - - 0.0
19/04:00pm 13.0 10.3 3.9 54 4.4 NW 7 17 4 9 - - 0.0
19/03:30pm 13.9 10.4 3.7 50 4.9 NW 11 20 6 11 - - 0.0
19/03:00pm 14.3 11.0 4.6 52 4.8 W 11 24 6 13 - - 0.0
19/02:30pm 13.9 10.2 4.2 52 4.7 W 13 26 7 14 - - 0.0
19/02:00pm 14.5 11.2 6.3 58 4.2 WNW 13 20 7 11 - - 0.0
19/01:30pm 14.3 10.5 5.9 57 4.3 NW 15 30 8 16 - - 0.0
19/01:00pm 13.6 10.7 6.5 62 3.6 WNW 11 20 6 11 - - 0.0
19/12:30pm 13.7 10.3 7.5 66 3.2 W 15 32 8 17 - - 0.0
19/12:00pm 13.6 11.3 7.4 66 3.2 WNW 9 19 5 10 - - 0.0
19/11:30am 14.5 11.2 8.0 65 3.4 W 15 35 8 19 - - 0.0
19/11:00am 13.0 10.4 7.7 70 2.8 WSW 11 22 6 12 - - 0.0
19/10:30am 11.9 9.0 6.6 70 2.7 W 11 19 6 10 - - 0.0
19/10:00am 12.5 9.8 7.4 71 2.6 W 11 28 6 15 - - 0.0
19/09:30am 11.6 8.8 6.9 73 2.4 W 11 17 6 9 - - 0.0
19/09:00am 11.4 9.2 7.7 78 1.9 WSW 9 15 5 8 - - 0.0
19/08:30am 11.0 9.2 7.9 81 1.6 W 7 13 4 7 - - 0.0
19/08:00am 10.0 8.1 7.4 84 1.3 WSW 7 11 4 6 - - 0.0
19/07:30am 9.4 7.4 7.3 87 1.1 WSW 7 13 4 7 - - 0.0
19/07:00am 8.7 6.8 6.8 88 0.9 SW 6 11 3 6 - - 0.0
19/06:30am 8.4 6.4 6.4 87 1.0 SW 6 11 3 6 - - 0.0
19/06:00am 8.3 6.3 6.3 87 1.0 SSW 6 9 3 5 - - 0.0
19/05:30am 8.5 6.9 6.3 86 1.1 SW 4 6 2 3 - - 0.0
19/05:00am 8.8 6.8 6.4 85 1.2 SW 6 9 3 5 - - 0.0
19/04:30am 8.8 6.7 5.9 82 1.4 WSW 6 9 3 5 - - 0.0
19/04:00am 9.3 7.4 6.6 83 1.3 WSW 6 11 3 6 - - 0.0
19/03:30am 8.8 7.1 6.1 83 1.3 W 4 7 2 4 - - 0.0
19/03:00am 9.0 7.0 6.1 82 1.4 W 6 15 3 8 - - 0.0
19/02:30am 9.4 7.7 6.1 80 1.6 WNW 4 11 2 6 - - 0.0
19/02:00am 9.8 8.1 6.0 77 1.9 WSW 4 11 2 6 - - 0.0
19/01:30am 10.2 8.1 6.0 75 2.1 W 6 11 3 6 - - 0.0
19/01:00am 10.8 8.8 6.2 73 2.3 W 6 17 3 9 - - 0.0
19/12:30am 10.5 8.5 6.1 74 2.2 WNW 6 11 3 6 - - 0.0
19/12:00am 10.5 8.5 6.1 74 2.2 WNW 6 9 3 5 - - 0.0
 
Date/Time
EST
Temp
°C
App
Temp
°C
Dew
Point
Rel
Hum
%
Delta-T
°C
Wind Press
QNH
hPa
Press
MSL
hPa
Rain
since 9 am
mm
Dir
 
Spd
km/h
Gust
km/h
Spd
kts
Gust
kts
18/11:30pm 11.0 8.7 5.5 69 2.7 W 7 13 4 7 - - 0.0
18/11:00pm 10.7 8.6 5.9 72 2.4 W 6 13 3 7 - - 0.0
18/10:30pm 10.8 8.6 6.2 73 2.3 W 7 13 4 7 - - 0.0
18/10:00pm 10.7 8.7 6.3 74 2.2 W 6 15 3 8 - - 0.0
18/09:30pm 11.1 8.6 6.6 74 2.3 W 9 19 5 10 - - 0.0
18/09:00pm 11.5 9.1 6.8 73 2.4 W 9 17 5 9 - - 0.0
18/08:30pm 11.2 8.7 6.5 73 2.4 W 9 17 5 9 - - 0.0
18/08:00pm 10.7 8.1 6.3 74 2.2 W 9 15 5 8 - - 0.0
18/07:30pm 10.7 8.5 6.3 74 2.2 W 7 13 4 7 - - 0.0
18/07:00pm 10.9 8.8 6.5 74 2.2 W 7 17 4 9 - - 0.0
18/06:30pm 11.3 8.8 6.6 73 2.4 W 9 17 5 9 - - 0.0
18/06:00pm 11.7 9.2 6.4 70 2.7 W 9 17 5 9 - - 0.0
18/05:30pm 12.3 9.4 6.4 67 3.0 W 11 19 6 10 - - 0.0
18/05:00pm 13.3 10.8 6.6 64 3.4 W 9 24 5 13 - - 0.0
18/04:30pm 14.1 10.9 6.7 61 3.8 W 13 32 7 17 - - 0.0
18/04:00pm 14.2 11.6 7.7 65 3.4 W 11 20 6 11 - - 0.0
18/03:30pm 15.5 12.4 7.3 58 4.3 W 13 22 7 12 - - 0.0
18/03:00pm 14.9 12.2 7.5 61 3.9 W 11 24 6 13 - - 0.0
18/02:30pm 16.4 14.0 8.6 60 4.2 W 11 20 6 11 - - 0.0
18/02:00pm 15.2 11.7 7.3 59 4.1 SW 15 28 8 15 - - 0.0
18/01:30pm 15.0 12.0 7.5 61 3.9 W 13 24 7 13 - - 0.0
18/01:00pm 15.7 13.8 8.9 64 3.7 W 9 19 5 10 - - 0.0
18/12:30pm 15.1 13.0 8.3 64 3.6 W 9 17 5 9 - - 0.0
18/12:00pm 13.7 11.0 7.2 65 3.4 W 11 24 6 13 - - 0.0
18/11:30am 13.6 10.6 6.2 61 3.8 W 11 19 6 10 - - 0.0
18/11:00am 12.8 10.1 7.5 70 2.8 WSW 11 22 6 12 - - 0.0
18/10:30am 12.1 9.0 7.4 73 2.4 W 13 28 7 15 - - 0.0
18/10:00am 11.7 8.5 7.0 73 2.4 W 13 24 7 13 - - 0.0
18/09:30am 11.7 9.3 7.0 73 2.4 W 9 17 5 9 - - 0.0
18/09:00am 11.1 8.6 6.5 73 2.3 W 9 15 5 8 - - 0.2
18/08:30am 10.6 8.1 6.7 77 2.0 W 9 20 5 11 - - 0.2
18/08:00am 9.5 7.7 7.1 85 1.2 W 6 9 3 5 - - 0.2
18/07:30am 8.5 6.4 6.8 89 0.8 W 7 11 4 6 - - 0.2
18/07:00am 7.1 5.4 6.0 93 0.5 WNW 4 7 2 4 - - 0.2
18/06:30am 6.8 5.1 5.9 94 0.4 WNW 4 7 2 4 - - 0.2
18/06:00am 7.3 5.3 6.4 94 0.4 WNW 6 11 3 6 - - 0.2
18/05:30am 7.4 5.6 7.1 98 0.1 WNW 6 9 3 5 - - 0.2
18/05:00am 7.5 6.1 7.4 99 0.0 WNW 4 7 2 4 - - 0.2
18/04:30am 7.3 5.9 7.2 99 0.0 WNW 4 6 2 3 - - 0.2
18/04:00am 7.4 6.4 7.3 99 0.0 WNW 2 4 1 2 - - 0.0
18/03:30am 7.6 7.0 7.2 97 0.2 CALM 0 0 0 0 - - 0.0
18/03:00am 7.7 6.7 7.3 97 0.2 WNW 2 4 1 2 - - 0.0
18/02:30am 7.8 6.8 7.5 98 0.2 WNW 2 4 1 2 - - 0.0
18/02:00am 6.8 6.0 6.7 99 0.0 CALM 0 0 0 0 - - 0.0
18/01:30am 7.2 6.5 7.1 99 0.0 CALM 0 0 0 0 - - 0.0
18/01:00am 7.5 6.9 7.4 99 0.0 CALM 0 0 0 0 - - 0.0
18/12:30am 7.3 6.3 7.2 99 0.0 ESE 2 2 1 1 - - 0.0
18/12:00am 7.4 6.3 7.1 98 0.1 ESE 2 4 1 2 - - 0.0
 
Date/Time
EST
Temp
°C
App
Temp
°C
Dew
Point
Rel
Hum
%
Delta-T
°C
Wind Press
QNH
hPa
Press
MSL
hPa
Rain
since 9 am
mm
Dir
 
Spd
km/h
Gust
km/h
Spd
kts
Gust
kts
17/11:30pm 7.3 6.1 6.6 95 0.3 ESE 2 4 1 2 - - 0.0
17/11:00pm 8.8 6.7 8.4 97 0.2 ESE 9 11 5 6 - - 0.0
17/10:30pm 9.1 7.1 8.5 96 0.3 ESE 9 11 5 6 - - 0.0
17/10:00pm 9.2 7.0 8.0 92 0.6 ESE 9 11 5 6 - - 0.0
17/09:30pm 9.6 7.7 7.4 86 1.1 ESE 7 11 4 6 - - 0.0
17/09:00pm 8.1 6.1 6.1 87 1.0 ESE 6 7 3 4 - - 0.0
17/08:30pm 8.3 6.5 5.2 81 1.5 ESE 4 7 2 4 - - 0.0
17/08:00pm 9.0 7.3 4.2 72 2.3 SE 2 4 1 2 - - 0.0
17/07:30pm 10.7 8.9 5.3 69 2.6 SSE 4 7 2 4 - - 0.0
17/07:00pm 9.9 7.7 3.6 65 2.9 SSW 4 6 2 3 - - 0.0
17/06:30pm 10.2 8.4 3.7 64 3.1 SSW 2 4 1 2 - - 0.0
17/06:00pm 11.0 9.3 3.8 61 3.4 SW 2 6 1 3 - - 0.0
17/05:30pm 12.1 10.3 3.6 56 4.0 WNW 2 6 1 3 - - 0.0
17/05:00pm 13.2 11.2 4.6 56 4.2 WSW 4 7 2 4 - - 0.0
17/04:30pm 13.4 11.8 6.5 63 3.5 SSW 4 7 2 4 - - 0.0
17/04:00pm 14.4 11.8 6.3 58 4.1 SSW 9 15 5 8 - - 0.0
17/03:30pm 14.4 12.6 5.2 54 4.6 SSW 4 9 2 5 - - 0.0
17/03:00pm 14.0 11.5 4.6 53 4.6 SSW 7 15 4 8 - - 0.0
17/02:30pm 15.0 12.1 4.7 50 5.1 SW 9 15 5 8 - - 0.0
17/02:00pm 14.9 12.0 4.9 51 5.0 SSW 9 17 5 9 - - 0.0
17/01:30pm 14.6 12.0 4.0 49 5.2 SW 7 15 4 8 - - 0.0
17/01:00pm 13.2 11.1 6.5 64 3.4 SSE 7 13 4 7 - - 0.0

Other Formats:

Comma delimited format used in spreadsheet applications
http://www.bom.gov.au/fwo/IDN60801/IDN60801.94754.axf

JavaScript Object Notation format (JSON) in row-major order
http://www.bom.gov.au/fwo/IDN60801/IDN60801.94754.json